Time;durP1;ratioP1;P1;durP2;ratioP2;P2;SDS_P1;SDS_P2;PMS_P1;PMS_P2;Temp;Humidity;BMP_temperature;BMP_pressure;BME280_temperature;BME280_humidity;BME280_pressure;Samples;Min_cycle;Max_cycle;Signal;HPM_P1;HPM_P2
2023/05/04 00:03:54;;;;;;;25.00;17.40;;;;;;;12.75;71.19;99853.44;223965;180;139627;-69
2023/05/04 00:08:58;;;;;;;20.90;16.20;;;;;;;12.71;71.29;99853.85;223942;180;145835;-66
2023/05/04 00:14:01;;;;;;;23.00;16.90;;;;;;;12.74;70.87;99851.54;223979;180;139323;-69
2023/05/04 00:19:04;;;;;;;19.90;15.30;;;;;;;12.74;70.13;99851.86;224109;179;137534;-72
2023/05/04 00:24:07;;;;;;;19.70;14.60;;;;;;;12.71;69.54;99852.44;223993;180;145746;-67
2023/05/04 00:29:10;;;;;;;23.20;14.50;;;;;;;12.67;68.92;99848.41;223985;180;139003;-68
2023/05/04 00:34:14;;;;;;;19.60;13.10;;;;;;;12.58;68.27;99851.23;224088;180;137139;-66
2023/05/04 00:39:17;;;;;;;15.40;11.50;;;;;;;12.48;67.82;99845.17;223945;180;146040;-65
2023/05/04 00:44:22;;;;;;;16.90;11.90;;;;;;;12.39;67.36;99842.31;223878;180;138958;-68
2023/05/04 00:49:26;;;;;;;16.30;10.60;;;;;;;12.30;66.91;99839.45;223961;181;136830;-69
2023/05/04 00:54:29;;;;;;;17.10;10.20;;;;;;;12.19;66.97;99837.94;223982;181;145224;-69
2023/05/04 01:01:33;;;;;;;16.10;8.80;;;;;;;12.06;66.31;99835.60;220316;192;665409;-69
2023/05/04 01:06:59;;;;;;;12.40;8.30;;;;;;;12.01;65.85;99834.86;223566;184;136589;-71
2023/05/04 01:12:55;;;;;;;14.40;8.60;;;;;;;11.97;65.73;99837.58;223732;183;144366;-70
2023/05/04 01:17:58;;;;;;;15.10;8.70;;;;;;;11.92;64.51;99831.96;223153;187;139324;-70
2023/05/04 01:23:02;;;;;;;14.30;8.30;;;;;;;11.86;64.35;99832.29;223625;183;136589;-69
2023/05/04 01:28:23;;;;;;;11.70;7.90;;;;;;;11.74;64.63;99838.09;223637;184;143931;-69
2023/05/04 01:33:27;;;;;;;9.90;6.90;;;;;;;11.66;64.22;99836.04;223492;184;138432;-66
2023/05/04 01:38:30;;;;;;;12.60;7.80;;;;;;;11.61;64.19;99832.21;223575;184;136810;-67
2023/05/04 01:43:35;;;;;;;12.60;7.50;;;;;;;11.52;64.12;99829.81;223631;184;143951;-66
2023/05/04 01:48:39;;;;;;;11.90;6.80;;;;;;;11.46;64.03;99829.46;223521;184;138537;-66
2023/05/04 01:53:42;;;;;;;11.70;6.60;;;;;;;11.43;64.03;99825.70;223567;184;139449;-69
2023/05/04 01:58:45;;;;;;;12.00;6.90;;;;;;;11.33;64.37;99824.59;223594;184;144950;-68
2023/05/04 02:03:48;;;;;;;12.30;7.20;;;;;;;11.24;64.28;99826.70;223513;184;138405;-66
2023/05/04 02:08:52;;;;;;;13.80;7.30;;;;;;;11.14;64.28;99827.00;223515;184;137153;-69
2023/05/04 02:13:55;;;;;;;12.00;6.80;;;;;;;11.07;63.97;99821.15;223455;185;146417;-68
2023/05/04 02:18:58;;;;;;;11.60;6.90;;;;;;;11.06;63.41;99818.59;223535;185;138279;-67
2023/05/04 02:24:03;;;;;;;10.90;6.30;;;;;;;11.00;63.03;99822.44;223473;185;137314;-70
2023/05/04 02:29:06;;;;;;;13.50;6.50;;;;;;;10.90;63.33;99819.89;223605;184;145308;-67
2023/05/04 02:34:09;;;;;;;11.80;7.30;;;;;;;10.79;63.40;99822.23;223524;185;138883;-70
2023/05/04 02:39:21;;;;;;;12.70;8.60;;;;;;;10.69;63.14;99818.34;223557;184;136915;-70
2023/05/04 02:44:24;;;;;;;90.90;63.50;;;;;;;10.73;63.75;99819.91;223521;185;146130;-67
2023/05/04 02:49:27;;;;;;;23.30;16.60;;;;;;;10.70;63.10;99816.31;223559;184;138842;-71
2023/05/04 02:54:30;;;;;;;11.40;6.70;;;;;;;10.66;63.63;99815.64;223541;185;137369;-71
2023/05/04 02:59:33;;;;;;;10.20;6.50;;;;;;;10.57;63.43;99809.13;223501;185;145781;-70
2023/05/04 03:04:36;;;;;;;11.00;6.10;;;;;;;10.45;63.25;99808.48;223557;184;138627;-65
2023/05/04 03:09:41;;;;;;;9.90;6.00;;;;;;;10.30;63.19;99811.69;223556;184;137826;-65
2023/05/04 03:14:46;;;;;;;19.30;11.20;;;;;;;10.22;63.49;99818.63;223562;184;145164;-70
2023/05/04 03:19:49;;;;;;;10.00;5.60;;;;;;;10.20;62.87;99816.27;223594;184;138919;-69
2023/05/04 03:24:52;;;;;;;7.20;4.90;;;;;;;10.07;62.45;99821.27;223636;184;137239;-67
2023/05/04 03:29:56;;;;;;;13.20;5.20;;;;;;;9.96;62.25;99824.11;223591;184;145345;-71
2023/05/04 03:34:59;;;;;;;11.20;5.20;;;;;;;9.91;61.87;99829.65;223528;183;138397;-70
2023/05/04 03:40:08;;;;;;;8.70;5.00;;;;;;;9.87;61.69;99832.85;223647;184;136947;-71
2023/05/04 03:45:11;;;;;;;7.70;5.20;;;;;;;9.80;61.73;99825.55;223757;182;145228;-71
2023/05/04 03:50:14;;;;;;;43.60;30.40;;;;;;;9.82;61.84;99826.70;223719;182;138383;-73
2023/05/04 03:55:18;;;;;;;9.20;5.70;;;;;;;9.89;61.20;99828.36;223753;182;137191;-66
2023/05/04 04:00:23;;;;;;;10.40;4.80;;;;;;;9.91;60.79;99828.23;223602;182;148632;-67
2023/05/04 04:05:31;;;;;;;10.00;5.20;;;;;;;9.89;60.78;99830.30;223666;182;139854;-69
2023/05/04 04:10:35;;;;;;;7.70;5.10;;;;;;;9.88;61.27;99833.02;223735;182;137006;-68
2023/05/04 04:15:39;;;;;;;8.40;4.60;;;;;;;9.83;61.14;99836.23;223754;182;145777;-69
2023/05/04 04:20:44;;;;;;;9.90;5.30;;;;;;;9.82;61.57;99835.59;223735;182;138572;-66
2023/05/04 04:25:47;;;;;;;7.90;4.80;;;;;;;9.84;61.54;99831.42;223735;182;137097;-65
2023/05/04 04:30:51;;;;;;;9.70;5.30;;;;;;;9.87;61.83;99830.91;223429;182;145670;-72
2023/05/04 04:35:55;;;;;;;11.50;5.00;;;;;;;9.93;62.23;99833.48;222620;182;138844;-68
2023/05/04 04:40:58;;;;;;;11.10;4.80;;;;;;;9.96;61.73;99843.80;223781;182;137079;-65
2023/05/04 04:46:02;;;;;;;11.20;4.90;;;;;;;10.00;61.83;99843.42;223828;181;149991;-70
2023/05/04 04:51:10;;;;;;;6.20;4.00;;;;;;;10.05;61.34;99844.06;223681;182;138457;-69
2023/05/04 04:56:13;;;;;;;7.60;4.10;;;;;;;10.11;60.70;99851.25;223748;182;141035;-68
2023/05/04 05:01:17;;;;;;;10.10;4.60;;;;;;;10.16;60.69;99854.55;223793;182;145298;-67
2023/05/04 05:06:21;;;;;;;8.80;4.30;;;;;;;10.25;60.07;99860.36;223704;182;138983;-68
2023/05/04 05:11:24;;;;;;;7.30;4.40;;;;;;;10.33;60.13;99860.67;223737;182;138350;-69
2023/05/04 05:16:27;;;;;;;8.30;4.50;;;;;;;10.44;59.51;99859.81;223789;182;146126;-68
2023/05/04 05:21:30;;;;;;;5.60;4.00;;;;;;;10.56;59.96;99864.54;223736;182;138555;-69
2023/05/04 05:26:33;;;;;;;8.90;4.10;;;;;;;10.65;59.58;99863.20;223711;182;137995;-64
2023/05/04 05:31:37;;;;;;;8.00;4.60;;;;;;;10.75;59.45;99864.13;223762;182;145316;-65
2023/05/04 05:36:40;;;;;;;9.10;4.40;;;;;;;10.86;59.62;99865.89;223633;181;139143;-69
2023/05/04 05:41:43;;;;;;;10.20;4.80;;;;;;;10.95;59.38;99867.94;223689;181;137991;-69
2023/05/04 05:46:47;;;;;;;9.70;4.70;;;;;;;11.08;59.62;99867.98;223749;181;145814;-66
2023/05/04 05:51:50;;;;;;;10.50;5.10;;;;;;;11.23;59.55;99864.23;223741;182;138632;-67
2023/05/04 05:56:53;;;;;;;8.90;5.00;;;;;;;11.34;59.36;99862.25;223684;181;140655;-63
2023/05/04 06:01:56;;;;;;;8.50;4.50;;;;;;;11.45;58.60;99865.05;223628;182;146576;-65
2023/05/04 06:06:59;;;;;;;11.60;5.00;;;;;;;11.52;58.40;99867.66;223644;182;140876;-67
2023/05/04 06:12:05;;;;;;;12.90;5.10;;;;;;;11.59;58.24;99863.58;223736;182;137298;-65
2023/05/04 06:17:08;;;;;;;10.30;5.10;;;;;;;11.66;58.18;99868.92;223596;181;145273;-67
2023/05/04 06:22:11;;;;;;;11.80;4.90;;;;;;;11.74;58.03;99867.54;223745;183;138299;-70
2023/05/04 06:27:15;;;;;;;10.40;4.90;;;;;;;11.84;58.27;99868.12;223687;182;141025;-67
2023/05/04 06:32:18;;;;;;;9.80;4.70;;;;;;;11.95;58.12;99866.86;223649;182;145079;-67
2023/05/04 06:37:22;;;;;;;11.00;4.70;;;;;;;12.04;58.30;99863.86;223720;182;138351;-66
2023/05/04 06:42:29;;;;;;;6.50;4.30;;;;;;;12.17;58.02;99861.38;223734;182;137151;-69
2023/05/04 06:47:36;;;;;;;8.70;4.70;;;;;;;12.28;58.13;99859.51;223643;182;145289;-67
2023/05/04 06:52:42;;;;;;;8.00;5.00;;;;;;;12.43;57.52;99862.40;223737;182;138656;-68
2023/05/04 06:57:45;;;;;;;7.40;4.90;;;;;;;12.54;57.24;99859.42;223695;182;138533;-69
2023/05/04 07:02:48;;;;;;;8.00;4.70;;;;;;;12.64;57.54;99859.05;223717;182;145501;-72
2023/05/04 07:07:52;;;;;;;9.20;5.00;;;;;;;12.77;57.74;99856.73;223712;182;138049;-65
2023/05/04 07:12:55;;;;;;;11.50;5.40;;;;;;;12.88;57.51;99853.76;223691;182;137226;-68
2023/05/04 07:17:58;;;;;;;10.00;5.00;;;;;;;12.98;57.33;99858.32;223724;182;145109;-66
2023/05/04 07:23:02;;;;;;;8.50;5.10;;;;;;;13.08;57.46;99856.70;223746;182;139045;-67
2023/05/04 07:28:05;;;;;;;12.30;5.60;;;;;;;13.17;57.39;99855.05;223742;182;137485;-66
2023/05/04 07:33:09;;;;;;;11.10;6.00;;;;;;;13.30;57.50;99854.72;223720;181;145732;-67
2023/05/04 07:38:13;;;;;;;7.30;5.50;;;;;;;13.44;56.61;99853.11;223676;181;138426;-68
2023/05/04 09:45:42;;;;;;;10.00;4.10;;;;;;;16.52;45.81;99837.27;221691;191;666237;-66
2023/05/04 09:50:53;;;;;;;5.00;3.50;;;;;;;16.65;46.11;99831.66;223686;183;137304;-68
2023/05/04 09:56:16;;;;;;;6.50;4.40;;;;;;;16.45;45.96;99836.01;223759;183;143941;-69
2023/05/04 10:01:20;;;;;;;8.00;4.30;;;;;;;16.17;46.05;99836.78;223747;183;138995;-68
2023/05/04 10:06:31;;;;;;;7.50;4.30;;;;;;;16.06;46.58;99825.80;223585;183;137586;-66
2023/05/04 10:11:36;;;;;;;8.30;4.20;;;;;;;16.46;46.55;99821.61;223694;183;143576;-66
2023/05/04 10:17:00;;;;;;;7.00;3.80;;;;;;;16.82;45.70;99809.80;223701;183;138433;-70
2023/05/04 10:22:32;;;;;;;7.60;3.70;;;;;;;16.94;44.94;99808.22;223681;183;137451;-67
2023/05/04 10:27:56;;;;;;;16.50;4.40;;;;;;;17.31;43.55;99798.14;223525;183;144089;-65
2023/05/04 10:33:01;;;;;;;8.80;4.10;;;;;;;17.25;43.72;99801.11;223290;189;138506;-66
2023/05/04 10:38:05;;;;;;;7.70;3.90;;;;;;;17.33;44.37;99796.94;223520;185;136499;-64
2023/05/04 10:43:12;;;;;;;4.80;3.70;;;;;;;17.65;43.64;99791.35;223378;183;147248;-65
2023/05/04 10:48:15;;;;;;;15.00;10.40;;;;;;;17.98;44.04;99787.84;223344;183;138778;-64
2023/05/04 10:53:31;;;;;;;16.40;9.80;;;;;;;18.55;45.17;99778.69;223382;184;138754;-66
2023/05/04 10:58:35;;;;;;;11.00;8.50;;;;;;;19.09;45.13;99774.73;223483;209;145298;-65
2023/05/04 11:03:41;;;;;;;8.10;6.10;;;;;;;19.46;44.80;99777.63;223423;182;140313;-64
2023/05/04 11:08:48;;;;;;;9.10;4.40;;;;;;;19.87;45.08;99770.98;223398;182;136881;-65
2023/05/04 11:13:51;;;;;;;8.80;5.10;;;;;;;20.14;44.07;99765.68;223418;182;145752;-66
2023/05/04 11:19:08;;;;;;;8.20;4.70;;;;;;;20.33;41.99;99762.12;223359;215;138113;-64
2023/05/04 11:24:12;;;;;;;5.50;4.20;;;;;;;20.48;41.77;99760.92;223357;182;136780;-65
2023/05/04 11:29:15;;;;;;;6.10;3.60;;;;;;;20.71;41.11;99748.20;223704;183;145093;-65
2023/05/04 11:34:19;;;;;;;5.80;3.50;;;;;;;20.88;39.33;99741.41;223532;182;138266;-64
2023/05/04 11:39:30;;;;;;;5.50;3.70;;;;;;;20.73;39.57;99733.02;223448;182;136459;-65
2023/05/04 11:44:35;;;;;;;4.50;3.00;;;;;;;20.67;39.42;99729.89;223487;182;145969;-66
2023/05/04 11:49:38;;;;;;;4.90;3.30;;;;;;;20.70;39.41;99721.95;223371;186;138828;-67
2023/05/04 11:54:41;;;;;;;6.00;4.80;;;;;;;20.53;38.93;99724.08;223539;182;136442;-66
2023/05/04 11:59:48;;;;;;;6.60;5.00;;;;;;;20.49;38.47;99725.40;223537;182;145273;-64
2023/05/04 12:04:51;;;;;;;7.00;4.00;;;;;;;20.24;38.77;99718.23;223635;182;138262;-63
2023/05/04 12:09:54;;;;;;;9.70;4.50;;;;;;;20.47;38.40;99717.02;223690;182;136661;-64
2023/05/04 12:14:58;;;;;;;4.90;4.20;;;;;;;20.60;38.29;99721.63;223702;182;145135;-64
2023/05/04 12:20:01;;;;;;;5.80;3.30;;;;;;;20.64;37.87;99711.92;223619;181;139005;-64
2023/05/04 12:25:05;;;;;;;5.20;3.60;;;;;;;20.89;36.99;99715.30;223618;182;136736;-63
2023/05/04 12:30:10;;;;;;;5.90;3.20;;;;;;;21.18;36.80;99710.81;223613;182;145652;-64
2023/05/04 12:35:13;;;;;;;5.40;2.50;;;;;;;21.37;35.17;99697.40;223765;182;138419;-63
2023/05/04 12:40:16;;;;;;;4.50;2.40;;;;;;;21.47;35.05;99698.27;223628;182;136218;-63
2023/05/04 12:45:30;;;;;;;4.60;2.60;;;;;;;21.69;35.18;99690.52;223743;182;145260;-63
2023/05/04 12:50:34;;;;;;;110.80;81.20;;;;;;;21.91;35.09;99682.19;223663;182;140503;-64
2023/05/04 12:55:37;;;;;;;6.80;4.80;;;;;;;22.11;34.41;99679.91;223693;182;138065;-63
2023/05/04 13:00:42;;;;;;;5.10;3.60;;;;;;;22.26;32.69;99680.53;223669;182;145309;-64
2023/05/04 13:05:48;;;;;;;6.00;3.80;;;;;;;22.46;32.29;99677.84;223630;181;138763;-64
2023/05/04 13:10:51;;;;;;;5.80;3.30;;;;;;;22.53;32.31;99671.73;223717;182;139941;-65
2023/05/04 13:15:55;;;;;;;4.20;2.60;;;;;;;22.68;33.07;99672.33;223639;181;145089;-63
2023/05/04 13:20:58;;;;;;;3.80;2.60;;;;;;;22.87;32.24;99662.90;223718;182;138488;-64
2023/05/04 13:26:02;;;;;;;3.90;2.80;;;;;;;22.93;32.48;99659.54;223711;181;137750;-64
2023/05/04 13:31:05;;;;;;;6.30;2.70;;;;;;;22.99;32.51;99653.90;223608;181;145652;-63
2023/05/04 13:36:08;;;;;;;5.30;3.10;;;;;;;23.01;31.74;99645.62;223744;182;139884;-62
2023/05/04 13:41:11;;;;;;;4.20;2.50;;;;;;;23.02;31.86;99636.20;223729;182;137786;-65
2023/05/04 13:46:14;;;;;;;7.40;2.60;;;;;;;23.00;31.90;99624.68;223753;182;145966;-63
2023/05/04 13:51:18;;;;;;;3.60;2.10;;;;;;;23.18;32.18;99621.02;223790;181;140166;-64
2023/05/04 13:56:22;;;;;;;3.70;2.20;;;;;;;23.13;30.89;99619.02;223696;182;136814;-67
2023/05/04 14:01:27;;;;;;;5.00;1.80;;;;;;;23.04;30.48;99613.21;223693;182;145614;-66
2023/05/04 14:06:33;;;;;;;3.30;1.90;;;;;;;23.08;31.25;99607.04;223655;182;138259;-67
2023/05/04 14:13:15;;;;;;;6.30;2.10;;;;;;;23.07;30.80;99598.75;221902;189;667441;-62
2023/05/04 14:18:18;;;;;;;9.10;4.10;;;;;;;22.98;31.28;99593.52;222946;188;136562;-63
2023/05/04 14:23:22;;;;;;;9.80;2.60;;;;;;;22.83;32.54;99587.91;223021;187;145043;-65
2023/05/04 14:28:25;;;;;;;6.30;2.00;;;;;;;22.68;31.82;99591.50;223083;188;141352;-65
2023/05/04 14:33:31;;;;;;;11.40;4.20;;;;;;;22.29;32.06;99587.67;223143;187;136955;-62
2023/05/04 14:38:34;;;;;;;9.10;3.30;;;;;;;22.10;32.44;99586.38;223102;187;143521;-61
2023/05/04 14:43:38;;;;;;;9.30;5.10;;;;;;;21.86;33.17;99590.22;223397;184;138863;-65
2023/05/04 14:48:41;;;;;;;16.10;8.50;;;;;;;21.67;33.63;99587.42;223373;185;136074;-65
2023/05/04 14:53:46;;;;;;;9.40;3.50;;;;;;;21.47;33.35;99583.95;223523;183;143234;-63
2023/05/04 14:58:49;;;;;;;20.60;12.30;;;;;;;21.24;34.69;99584.78;223620;183;138167;-65
2023/05/04 15:09:56;;;;;;;4.00;2.00;;;;;;;20.76;34.46;99578.83;223556;183;145597;-64
2023/05/04 15:15:00;;;;;;;3.40;1.90;;;;;;;20.54;35.65;99579.41;223423;184;138376;-64
2023/05/04 15:20:04;;;;;;;2.70;1.60;;;;;;;20.44;37.25;99580.91;223592;183;137094;-64
2023/05/04 15:25:08;;;;;;;4.70;1.80;;;;;;;20.37;37.68;99580.41;223379;183;145319;-65
2023/05/04 15:30:12;;;;;;;3.00;1.50;;;;;;;20.31;36.06;99577.23;223205;184;138221;-64
2023/05/04 15:35:15;;;;;;;122.80;93.80;;;;;;;20.15;34.52;99573.92;223608;184;136530;-66
2023/05/04 15:40:18;;;;;;;8.90;6.70;;;;;;;20.08;35.25;99576.30;223244;184;146089;-64
2023/05/04 15:45:21;;;;;;;13.80;9.60;;;;;;;20.28;35.31;99570.35;223344;184;138452;-63
2023/05/04 15:50:25;;;;;;;8.20;5.70;;;;;;;20.42;34.87;99561.08;223491;184;137016;-61
2023/05/04 15:55:28;;;;;;;5.20;2.50;;;;;;;20.75;34.59;99556.89;223163;184;145015;-63
2023/05/04 16:00:33;;;;;;;4.40;3.00;;;;;;;21.28;33.45;99554.63;223338;184;138431;-63
2023/05/04 16:05:36;;;;;;;5.20;1.90;;;;;;;21.46;33.48;99549.64;223384;183;137092;-63
2023/05/04 16:10:39;;;;;;;8.50;1.70;;;;;;;21.52;32.33;99550.77;223312;184;145630;-65
2023/05/04 16:15:43;;;;;;;4.70;2.00;;;;;;;21.82;31.55;99546.04;223220;184;138629;-65
2023/05/04 16:20:47;;;;;;;179.30;144.40;;;;;;;21.45;31.36;99545.70;223391;184;137254;-66
2023/05/04 16:25:50;;;;;;;3.80;2.60;;;;;;;20.93;31.12;99543.78;223183;184;146033;-64
2023/05/04 16:30:53;;;;;;;4.80;2.00;;;;;;;20.33;31.76;99539.72;223330;184;138313;-64
2023/05/04 16:35:56;;;;;;;5.50;2.00;;;;;;;19.92;31.76;99540.64;223276;184;136442;-65
2023/05/04 16:41:00;;;;;;;5.20;1.80;;;;;;;19.59;32.55;99541.06;223294;195;145885;-64
2023/05/04 16:46:03;;;;;;;2.50;1.80;;;;;;;19.23;32.49;99542.84;223320;184;140033;-63
2023/05/04 16:51:09;;;;;;;3.70;1.90;;;;;;;18.80;33.47;99545.45;223268;184;136914;-64
2023/05/04 16:56:18;;;;;;;4.90;1.80;;;;;;;18.63;33.82;99542.52;223149;184;145080;-63
2023/05/04 17:01:21;;;;;;;53.80;38.30;;;;;;;18.53;33.63;99539.90;223341;184;138161;-63
2023/05/04 17:06:25;;;;;;;5.90;2.30;;;;;;;18.46;33.64;99538.83;223254;183;139949;-64
2023/05/04 17:11:30;;;;;;;6.60;1.90;;;;;;;18.30;34.45;99543.41;223254;217;145709;-65
2023/05/04 17:16:34;;;;;;;3.20;2.20;;;;;;;18.11;34.18;99544.34;223242;184;138260;-63
2023/05/04 17:21:38;;;;;;;6.00;2.20;;;;;;;17.84;34.09;99542.48;223234;184;138004;-64
2023/05/04 17:26:42;;;;;;;7.40;2.30;;;;;;;17.71;34.72;99543.00;223250;183;145300;-64
2023/05/04 17:31:55;;;;;;;6.60;2.00;;;;;;;17.59;35.52;99545.80;223244;183;138377;-63
2023/05/04 17:36:59;;;;;;;8.70;2.30;;;;;;;17.54;36.07;99548.76;223300;183;136908;-63
2023/05/04 17:42:03;;;;;;;11.00;3.50;;;;;;;17.38;37.00;99558.70;223355;183;145516;-64
2023/05/04 17:47:06;;;;;;;12.80;3.00;;;;;;;17.21;37.45;99561.09;223291;183;138291;-63
2023/05/04 17:52:09;;;;;;;14.60;2.60;;;;;;;17.07;37.77;99560.34;223342;183;137457;-63
2023/05/04 17:57:25;;;;;;;12.00;2.90;;;;;;;16.94;39.14;99570.83;223331;183;147022;-63
2023/05/04 18:02:29;;;;;;;23.80;3.50;;;;;;;16.79;39.70;99566.98;223211;184;139057;-62
2023/05/04 18:07:34;;;;;;;22.50;3.70;;;;;;;16.64;41.78;99568.38;223251;184;137443;-62
2023/05/04 18:12:37;;;;;;;19.50;3.40;;;;;;;16.47;41.76;99577.20;223181;188;145137;-62
2023/05/04 18:17:40;;;;;;;24.60;3.70;;;;;;;16.33;41.06;99584.90;223113;187;138933;-62
2023/05/04 18:22:44;;;;;;;11.50;3.50;;;;;;;16.23;41.85;99594.83;223446;184;136967;-58
2023/05/04 18:27:47;;;;;;;269.80;173.10;;;;;;;16.13;42.11;99603.83;223153;184;146151;-59
2023/05/04 18:32:50;;;;;;;18.00;7.10;;;;;;;16.08;41.81;99611.55;223213;184;138259;-58
2023/05/04 18:37:53;;;;;;;11.90;3.50;;;;;;;15.99;42.84;99618.10;223257;187;137974;-61
2023/05/04 18:42:56;;;;;;;9.90;3.70;;;;;;;15.89;44.51;99623.17;223251;184;145140;-60
2023/05/04 18:47:59;;;;;;;143.20;105.50;;;;;;;15.77;44.54;99625.30;223243;184;140410;-62
2023/05/04 18:53:04;;;;;;;16.20;5.50;;;;;;;15.76;43.24;99624.63;223380;187;138273;-63
2023/05/04 18:58:07;;;;;;;11.70;3.80;;;;;;;15.71;43.91;99624.84;223318;185;145069;-61
2023/05/04 19:03:10;;;;;;;11.10;3.60;;;;;;;15.59;45.37;99621.80;223260;184;138724;-63
2023/05/04 19:08:13;;;;;;;12.50;3.50;;;;;;;15.53;46.39;99616.35;223135;187;137975;-63
2023/05/04 19:13:16;;;;;;;17.10;4.20;;;;;;;15.47;45.35;99618.00;223409;184;145025;-61
2023/05/04 19:18:24;;;;;;;14.40;4.20;;;;;;;15.35;45.16;99619.23;223336;184;138366;-62
2023/05/04 19:23:27;;;;;;;10.40;4.00;;;;;;;15.35;45.70;99611.55;223399;184;137096;-64
2023/05/04 19:28:30;;;;;;;17.00;4.10;;;;;;;15.35;45.48;99612.60;223323;184;148275;-65
2023/05/04 19:33:34;;;;;;;19.50;6.20;;;;;;;15.25;45.38;99619.65;223212;184;139162;-67
2023/05/04 19:38:50;;;;;;;14.60;4.40;;;;;;;15.12;46.42;99616.60;223280;184;139544;-66
2023/05/04 19:43:53;;;;;;;17.70;6.20;;;;;;;15.01;46.89;99612.00;223267;184;145624;-66
2023/05/04 19:48:56;;;;;;;12.50;4.50;;;;;;;14.94;47.66;99614.69;223285;184;140758;-64
2023/05/04 19:53:59;;;;;;;16.30;5.40;;;;;;;14.81;48.63;99614.87;223221;184;136750;-63
2023/05/04 19:59:02;;;;;;;13.30;5.20;;;;;;;14.69;48.77;99612.83;223389;187;145955;-67
2023/05/04 20:04:07;;;;;;;16.20;5.60;;;;;;;14.62;48.89;99608.70;223318;184;138548;-66
2023/05/04 20:09:10;;;;;;;16.60;5.20;;;;;;;14.52;49.45;99601.33;223391;184;137765;-67
2023/05/04 20:14:13;;;;;;;16.10;6.10;;;;;;;14.41;49.92;99594.39;223424;183;145792;-67
2023/05/04 20:19:17;;;;;;;14.30;6.00;;;;;;;14.31;50.49;99591.50;223389;179;139852;-64
2023/05/04 20:24:21;;;;;;;22.10;8.80;;;;;;;14.25;51.54;99594.13;223364;182;137151;-64
2023/05/04 20:29:24;;;;;;;23.10;6.90;;;;;;;14.16;51.70;99587.70;223502;183;145328;-65
2023/05/04 20:34:27;;;;;;;12.20;7.20;;;;;;;14.08;52.00;99590.27;223405;183;139703;-63
2023/05/04 20:39:31;;;;;;;15.90;7.10;;;;;;;14.02;52.16;99589.56;223504;182;136621;-64
2023/05/04 20:44:34;;;;;;;13.90;7.30;;;;;;;13.95;52.36;99585.39;223410;182;148230;-64
2023/05/04 20:49:37;;;;;;;18.40;7.10;;;;;;;13.90;52.95;99582.70;223415;182;138708;-64
2023/05/04 20:54:40;;;;;;;25.70;8.60;;;;;;;13.85;53.03;99579.64;223594;181;138027;-64
2023/05/04 20:59:43;;;;;;;19.10;8.20;;;;;;;13.76;53.44;99579.54;223397;182;145108;-65
2023/05/04 21:04:47;;;;;;;16.00;8.10;;;;;;;13.68;54.07;99578.09;223489;182;139110;-63
2023/05/04 21:09:55;;;;;;;18.00;8.40;;;;;;;13.60;54.46;99580.77;223454;183;137099;-63
2023/05/04 21:14:58;;;;;;;17.60;8.30;;;;;;;13.52;54.93;99577.90;223411;181;145455;-63
2023/05/04 21:20:02;;;;;;;16.50;9.50;;;;;;;13.42;55.19;99573.95;223473;181;140313;-65
2023/05/04 21:25:05;;;;;;;14.20;8.60;;;;;;;13.36;55.06;99577.16;223499;182;137365;-66
2023/05/04 21:30:09;;;;;;;13.00;7.90;;;;;;;13.32;54.71;99577.77;223541;182;146348;-64
2023/05/04 21:35:19;;;;;;;16.30;8.30;;;;;;;13.29;54.57;99571.58;223549;183;138386;-65
2023/05/04 21:40:29;;;;;;;14.80;8.10;;;;;;;13.26;54.74;99568.40;223547;182;137609;-64
2023/05/04 21:45:32;;;;;;;15.30;7.50;;;;;;;13.23;54.70;99568.73;223606;182;145344;-66
2023/05/04 21:50:35;;;;;;;13.80;7.10;;;;;;;13.20;54.61;99568.35;223438;183;138876;-63
2023/05/04 21:55:38;;;;;;;20.80;8.50;;;;;;;13.17;55.05;99564.80;223484;183;142942;-64
2023/05/04 22:00:42;;;;;;;12.60;7.70;;;;;;;13.15;55.33;99567.42;223473;183;146215;-63
2023/05/04 22:05:56;;;;;;;11.40;7.60;;;;;;;13.10;55.44;99564.19;223667;182;139162;-67
2023/05/04 22:10:59;;;;;;;19.00;8.60;;;;;;;13.06;55.51;99563.94;223760;182;137801;-65
2023/05/04 22:16:03;;;;;;;14.60;8.50;;;;;;;13.01;55.86;99564.24;223738;182;145622;-65
2023/05/04 22:21:06;;;;;;;14.40;8.00;;;;;;;12.96;55.87;99564.77;223548;182;139231;-66
2023/05/04 22:26:09;;;;;;;14.10;8.00;;;;;;;12.91;55.80;99564.50;223725;182;139471;-66
2023/05/04 22:31:12;;;;;;;13.00;7.10;;;;;;;12.87;55.64;99564.59;223664;182;144953;-64
2023/05/04 22:36:15;;;;;;;11.20;7.00;;;;;;;12.82;55.18;99563.50;223749;182;139213;-64
2023/05/04 22:41:19;;;;;;;11.00;7.20;;;;;;;12.79;55.12;99558.89;223683;182;137939;-66
2023/05/04 22:46:24;;;;;;;13.20;7.00;;;;;;;12.74;55.17;99556.70;223681;182;147064;-63
2023/05/04 22:51:27;;;;;;;10.50;7.40;;;;;;;12.74;55.79;99558.85;223651;182;138319;-67
2023/05/04 22:56:31;;;;;;;11.10;7.00;;;;;;;12.70;55.73;99553.20;223588;182;138375;-64
2023/05/04 23:01:41;;;;;;;12.40;7.30;;;;;;;12.66;55.71;99548.86;223597;182;147143;-63
2023/05/04 23:06:44;;;;;;;13.00;7.30;;;;;;;12.60;55.65;99543.14;223549;182;138445;-65
2023/05/04 23:11:47;;;;;;;14.70;7.40;;;;;;;12.58;55.70;99540.79;223638;182;137469;-65
2023/05/04 23:16:50;;;;;;;12.90;7.20;;;;;;;12.51;56.32;99535.13;223654;182;147729;-65
2023/05/04 23:21:54;;;;;;;10.10;6.70;;;;;;;12.48;56.39;99532.27;223609;182;139154;-65
2023/05/04 23:26:57;;;;;;;12.30;7.10;;;;;;;12.43;56.15;99530.50;223673;182;137076;-64
2023/05/04 23:32:00;;;;;;;14.00;7.00;;;;;;;12.39;56.17;99522.95;223526;183;148729;-64
2023/05/04 23:37:04;;;;;;;14.00;7.40;;;;;;;12.37;56.61;99523.59;223615;182;140569;-64
2023/05/04 23:42:07;;;;;;;11.00;7.10;;;;;;;12.37;56.69;99522.14;223612;182;136764;-66
2023/05/04 23:47:10;;;;;;;11.70;6.90;;;;;;;12.35;56.50;99522.66;223754;182;148505;-63
2023/05/04 23:52:13;;;;;;;17.10;7.20;;;;;;;12.34;56.98;99523.95;223651;182;139590;-67
2023/05/04 23:57:16;;;;;;;13.70;7.10;;;;;;;12.31;57.30;99529.45;223588;182;140114;-64
